createdAt,value
2022-12-20T00:00:51.815Z,101030.09
2022-12-20T00:03:18.938Z,101025.94
2022-12-20T00:05:45.559Z,101029.59
2022-12-20T00:08:12.437Z,101015.53
2022-12-20T00:10:44.459Z,101015.38
2022-12-20T00:13:12.486Z,101023.06
2022-12-20T00:15:38.969Z,101008.41
2022-12-20T00:18:05.536Z,101015.38
2022-12-20T00:20:32.051Z,101017.78
2022-12-20T00:22:58.437Z,101010.25
2022-12-20T00:25:25.387Z,101011.97
2022-12-20T00:27:51.967Z,101010.81
2022-12-20T00:30:19.392Z,101017.78
2022-12-20T00:32:46.707Z,100992.75
2022-12-20T00:35:13.857Z,101000.56
2022-12-20T00:37:40.282Z,100994.88
2022-12-20T00:40:07.713Z,100994.69
2022-12-20T00:42:34.113Z,100994.75
2022-12-20T00:45:00.608Z,100984.75
2022-12-20T00:47:27.066Z,100990.59
2022-12-20T00:49:53.622Z,100996.94
2022-12-20T00:52:20.046Z,100991.03
2022-12-20T00:54:46.467Z,100971.19
2022-12-20T00:57:12.909Z,100972.84
2022-12-20T00:59:39.307Z,100971.16
2022-12-20T01:02:05.980Z,100970.78
2022-12-20T01:04:32.671Z,100957.69
2022-12-20T01:06:59.077Z,100964.94
2022-12-20T01:09:25.584Z,100967.75
2022-12-20T01:11:52.037Z,100965.09
2022-12-20T01:14:18.504Z,100956.81
2022-12-20T01:16:46.839Z,100951.41
2022-12-20T01:19:15.735Z,100957.16
2022-12-20T01:21:44.882Z,100960.81
2022-12-20T01:24:13.203Z,100954.44
2022-12-20T01:26:39.962Z,100953.97
2022-12-20T01:29:06.683Z,100945.97
2022-12-20T01:31:33.615Z,100935.97
2022-12-20T01:34:00.923Z,100914.16
2022-12-20T01:36:30.712Z,100934.91
2022-12-20T01:38:58.862Z,100934.25
2022-12-20T01:41:25.827Z,100933.84
2022-12-20T01:43:59.245Z,100935.50
2022-12-20T01:46:30.989Z,100938.91
2022-12-20T01:49:00.177Z,100931.03
2022-12-20T01:51:29.489Z,100917.63
2022-12-20T01:54:10.441Z,100918.34
2022-12-20T01:56:38.908Z,100921.44
2022-12-20T01:59:05.614Z,100920.28
2022-12-20T02:01:32.557Z,100926.31
2022-12-20T02:03:59.186Z,100916.59
2022-12-20T02:06:27.915Z,100915.03
2022-12-20T02:08:57.492Z,100914.19
2022-12-20T02:11:26.940Z,100919.34
2022-12-20T02:14:25.695Z,100919.94
2022-12-20T02:17:02.324Z,100922.47
2022-12-20T02:19:41.060Z,100925.13
2022-12-20T02:22:13.678Z,100938.56
2022-12-20T02:25:17.840Z,100941.78
2022-12-20T02:27:53.050Z,100945.66
2022-12-20T02:30:26.857Z,100943.34
2022-12-20T02:33:03.273Z,100935.22
2022-12-20T02:35:33.392Z,100943.97
2022-12-20T02:38:02.966Z,100935.97
2022-12-20T02:40:41.248Z,100923.41
2022-12-20T02:43:29.032Z,100946.06
2022-12-20T02:45:58.675Z,100922.38
2022-12-20T02:48:29.294Z,100929.38
2022-12-20T02:50:59.917Z,100908.88
2022-12-20T02:53:26.674Z,100891.81
2022-12-20T02:56:09.920Z,100909.78
2022-12-20T02:58:45.094Z,100899.50
2022-12-20T03:01:21.643Z,100897.19
2022-12-20T03:03:48.781Z,100901.50
2022-12-20T03:06:15.204Z,100908.88
2022-12-20T03:08:41.640Z,100910.44
2022-12-20T03:11:08.049Z,100907.22
2022-12-20T03:13:34.512Z,100914.94
2022-12-20T03:16:01.052Z,100904.94
2022-12-20T03:18:27.578Z,100910.00
2022-12-20T03:20:54.160Z,100913.31
2022-12-20T03:23:22.150Z,100915.44
2022-12-20T03:25:48.905Z,100906.34
2022-12-20T03:28:15.534Z,100913.31
2022-12-20T03:30:42.248Z,100907.81
2022-12-20T03:33:10.045Z,100898.72
2022-12-20T03:35:36.454Z,100898.25
2022-12-20T03:38:02.991Z,100888.69
2022-12-20T03:40:29.445Z,100889.78
2022-12-20T03:42:55.984Z,100897.97
2022-12-20T03:45:22.396Z,100896.53
2022-12-20T03:47:49.798Z,100899.00
2022-12-20T03:50:16.466Z,100886.88
2022-12-20T03:52:42.907Z,100887.41
2022-12-20T03:55:10.143Z,100880.25
2022-12-20T03:57:36.643Z,100881.63
2022-12-20T04:00:04.147Z,100883.28
2022-12-20T04:02:30.685Z,100890.16
2022-12-20T04:04:57.223Z,100887.22
2022-12-20T04:07:23.789Z,100881.84
2022-12-20T04:09:50.257Z,100881.09
2022-12-20T04:12:16.690Z,100878.81
2022-12-20T04:14:43.190Z,100873.25
2022-12-20T04:17:09.849Z,100876.38
2022-12-20T04:19:36.429Z,100858.16
2022-12-20T04:22:06.099Z,100859.22
2022-12-20T04:24:32.859Z,100863.88
2022-12-20T04:26:59.363Z,100857.09
2022-12-20T04:29:25.842Z,100858.72
2022-12-20T04:31:52.455Z,100866.56
2022-12-20T04:34:19.167Z,100870.69
2022-12-20T04:36:45.717Z,100859.91
2022-12-20T04:39:12.245Z,100869.13
2022-12-20T04:41:38.732Z,100863.31
2022-12-20T04:44:05.225Z,100850.28
2022-12-20T04:46:31.730Z,100862.41
2022-12-20T04:48:59.560Z,100856.81
2022-12-20T04:51:27.747Z,100846.88
2022-12-20T04:53:54.704Z,100858.66
2022-12-20T04:56:24.483Z,100844.94
2022-12-20T04:58:52.852Z,100840.34
2022-12-20T05:01:20.193Z,100840.72
2022-12-20T05:03:47.453Z,100847.34
2022-12-20T05:06:14.643Z,100840.00
2022-12-20T05:08:41.598Z,100835.00
2022-12-20T05:11:08.888Z,100826.03
2022-12-20T05:13:35.600Z,100826.03
2022-12-20T05:16:02.147Z,100832.81
2022-12-20T05:18:28.914Z,100826.19
2022-12-20T05:21:15.893Z,100826.00
2022-12-20T05:24:01.104Z,100825.84
2022-12-20T05:26:30.719Z,100840.97
2022-12-20T05:28:57.196Z,100828.31
2022-12-20T05:31:23.784Z,100815.72
2022-12-20T05:33:50.297Z,100813.69
2022-12-20T05:36:16.865Z,100816.16
2022-12-20T05:38:43.315Z,100825.44
2022-12-20T05:41:09.712Z,100811.22
2022-12-20T05:43:36.173Z,100799.81
2022-12-20T05:46:02.670Z,100812.03
2022-12-20T05:48:29.162Z,100807.53
2022-12-20T05:50:55.608Z,100800.63
2022-12-20T05:53:22.114Z,100799.19
2022-12-20T05:55:50.482Z,100810.84
2022-12-20T05:58:17.648Z,100800.75
2022-12-20T06:00:45.122Z,100799.47
2022-12-20T06:03:12.099Z,100792.47
2022-12-20T06:05:39.296Z,100790.59
2022-12-20T06:08:06.518Z,100794.94
2022-12-20T06:10:34.753Z,100778.56
2022-12-20T06:13:02.331Z,100789.72
2022-12-20T06:15:29.260Z,100790.72
2022-12-20T06:17:55.756Z,100804.03
2022-12-20T06:20:22.145Z,100794.38
2022-12-20T06:22:48.946Z,100784.53
2022-12-20T06:25:15.771Z,100781.41
2022-12-20T06:27:42.971Z,100786.03
2022-12-20T06:30:10.845Z,100786.19
2022-12-20T06:32:38.532Z,100785.03
2022-12-20T06:35:05.964Z,100774.72
2022-12-20T06:37:32.581Z,100786.56
2022-12-20T06:40:00.088Z,100785.38
2022-12-20T06:42:26.712Z,100779.69
2022-12-20T06:44:53.177Z,100784.19
2022-12-20T06:47:19.905Z,100778.47
2022-12-20T06:49:46.330Z,100779.06
2022-12-20T06:52:12.915Z,100781.22
2022-12-20T06:54:39.325Z,100771.84
2022-12-20T06:57:06.894Z,100776.16
2022-12-20T06:59:33.486Z,100782.25
2022-12-20T07:02:00.243Z,100776.16
2022-12-20T07:04:27.016Z,100770.56
2022-12-20T07:06:53.883Z,100770.75
2022-12-20T07:09:20.398Z,100767.81
2022-12-20T07:11:46.954Z,100769.88
2022-12-20T07:14:13.444Z,100773.59
2022-12-20T07:16:42.801Z,100778.75
2022-12-20T07:19:12.261Z,100783.34
2022-12-20T07:21:38.819Z,100768.69
2022-12-20T07:24:06.050Z,100768.97
2022-12-20T07:26:32.542Z,100772.81
2022-12-20T07:28:58.940Z,100782.69
2022-12-20T07:31:25.458Z,100776.84
2022-12-20T07:33:52.513Z,100774.38
2022-12-20T07:36:19.053Z,100773.97
2022-12-20T07:38:46.054Z,100765.00
2022-12-20T07:41:15.039Z,100770.47
2022-12-20T07:43:42.106Z,100763.78
2022-12-20T07:46:09.259Z,100772.69
2022-12-20T07:48:36.194Z,100767.31
2022-12-20T07:51:11.874Z,100765.00
2022-12-20T07:53:43.026Z,100766.22
2022-12-20T07:56:11.935Z,100774.88
2022-12-20T07:58:40.868Z,100752.44
2022-12-20T08:01:10.261Z,100774.44
2022-12-20T08:03:42.984Z,100778.22
2022-12-20T08:06:09.978Z,100775.22
2022-12-20T08:08:41.407Z,100777.44
2022-12-20T08:11:09.903Z,100787.84
2022-12-20T08:13:42.504Z,100792.91
2022-12-20T08:16:12.444Z,100802.22
2022-12-20T08:18:38.907Z,100797.59
2022-12-20T08:21:05.654Z,100804.56
2022-12-20T08:23:32.498Z,100801.09
2022-12-20T08:26:01.649Z,100809.09
2022-12-20T08:28:28.169Z,100807.06
2022-12-20T08:31:00.945Z,100789.41
2022-12-20T08:33:27.449Z,100787.78
2022-12-20T08:35:59.539Z,100780.88
2022-12-20T08:38:27.801Z,100800.72
2022-12-20T08:40:54.221Z,100805.59
2022-12-20T08:43:20.745Z,100795.59
2022-12-20T08:45:53.997Z,100796.56
2022-12-20T08:48:20.609Z,100795.50
2022-12-20T08:50:47.607Z,100793.38
2022-12-20T08:53:14.099Z,100787.06
2022-12-20T08:55:40.637Z,100791.34
2022-12-20T08:58:07.411Z,100801.19
2022-12-20T09:00:33.970Z,100804.69
2022-12-20T09:03:00.568Z,100811.22
2022-12-20T09:05:28.133Z,100798.63
2022-12-20T09:07:54.553Z,100798.44
2022-12-20T09:10:21.179Z,100795.50
2022-12-20T09:12:47.598Z,100792.84
2022-12-20T09:15:14.287Z,100784.00
2022-12-20T09:17:41.766Z,100769.47
2022-12-20T09:20:08.616Z,100758.19
2022-12-20T09:22:35.183Z,100776.38
2022-12-20T09:25:01.633Z,100778.03
2022-12-20T09:27:30.847Z,100785.84
2022-12-20T09:29:57.283Z,100787.06
2022-12-20T09:32:23.666Z,100786.88
2022-12-20T09:34:50.146Z,100784.28
2022-12-20T09:37:16.561Z,100788.97
2022-12-20T09:39:42.973Z,100789.88
2022-12-20T09:42:09.821Z,100787.22
2022-12-20T09:44:40.119Z,100794.09
2022-12-20T09:47:20.719Z,100804.22
2022-12-20T09:49:50.743Z,100799.69
2022-12-20T09:52:51.985Z,100784.09
2022-12-20T09:55:39.215Z,100788.97
2022-12-20T09:58:36.893Z,100787.66
2022-12-20T10:01:24.974Z,100794.75
2022-12-20T10:03:53.240Z,100797.78
2022-12-20T10:06:40.660Z,100786.09
2022-12-20T10:09:47.711Z,100793.91
2022-12-20T10:12:29.136Z,100790.16
2022-12-20T10:15:05.953Z,100778.47
2022-12-20T10:17:47.008Z,100783.25
2022-12-20T10:20:28.381Z,100774.53
2022-12-20T10:23:33.774Z,100781.22
2022-12-20T10:26:01.105Z,100766.78
2022-12-20T10:28:30.351Z,100777.47
2022-12-20T10:31:03.469Z,100782.78
2022-12-20T10:33:31.715Z,100791.81
2022-12-20T10:36:19.669Z,100786.03
2022-12-20T10:38:49.084Z,100779.59
2022-12-20T10:41:21.926Z,100774.91
2022-12-20T10:44:02.602Z,100777.66
2022-12-20T10:46:41.669Z,100769.28
2022-12-20T10:49:35.323Z,100776.53
2022-12-20T10:52:03.543Z,100771.88
2022-12-20T10:54:41.764Z,100771.50
2022-12-20T10:57:22.988Z,100759.25
2022-12-20T11:00:02.715Z,100767.72
2022-12-20T11:02:40.591Z,100775.72
2022-12-20T11:05:10.644Z,100754.88
2022-12-20T11:08:24.693Z,100767.47
2022-12-20T11:10:37.736Z,100771.31
2022-12-20T11:13:04.369Z,100772.03
2022-12-20T11:15:34.671Z,100776.47
2022-12-20T11:18:01.341Z,100771.84
2022-12-20T11:21:11.105Z,100770.41
2022-12-20T11:24:08.644Z,100753.38
2022-12-20T11:27:15.826Z,100772.09
2022-12-20T11:30:10.404Z,100767.78
2022-12-20T11:32:52.534Z,100768.44
2022-12-20T11:35:36.442Z,100764.59
2022-12-20T11:38:24.317Z,100758.50
2022-12-20T11:41:08.648Z,100767.00
2022-12-20T11:44:22.749Z,100767.59
2022-12-20T11:46:53.241Z,100769.75
2022-12-20T11:49:37.607Z,100770.75
2022-12-20T11:52:28.803Z,100770.56
2022-12-20T11:55:21.255Z,100756.41
2022-12-20T11:58:19.325Z,100767.28
2022-12-20T12:00:53.698Z,100755.59
2022-12-20T12:03:36.870Z,100764.34
2022-12-20T12:06:20.569Z,100762.56
2022-12-20T12:09:05.056Z,100765.06
2022-12-20T12:14:55.149Z,100754.66
2022-12-20T12:17:29.571Z,100762.28
2022-12-20T12:20:09.255Z,100759.81
2022-12-20T12:22:39.020Z,100754.81
2022-12-20T12:25:11.357Z,100749.22
2022-12-20T12:27:38.673Z,100759.72
2022-12-20T12:30:06.016Z,100756.22
2022-12-20T12:32:46.654Z,100750.25
2022-12-20T12:35:47.151Z,100761.63
2022-12-20T12:38:38.228Z,100749.41
2022-12-20T12:41:23.403Z,100762.28
2022-12-20T12:43:53.980Z,100753.75
2022-12-20T12:46:35.057Z,100766.84
2022-12-20T12:49:22.634Z,100766.31
2022-12-20T12:51:58.638Z,100758.50
2022-12-20T12:54:45.476Z,100758.78
2022-12-20T12:57:14.975Z,100758.06
2022-12-20T12:59:47.146Z,100768.91
2022-12-20T13:02:13.852Z,100771.66
2022-12-20T13:04:56.835Z,100770.66
2022-12-20T13:07:32.740Z,100773.31
2022-12-20T13:10:00.671Z,100764.50
2022-12-20T13:12:39.058Z,100762.81
2022-12-20T13:15:21.140Z,100765.47
2022-12-20T13:17:51.581Z,100767.22
2022-12-20T13:21:04.055Z,100761.81
2022-12-20T13:23:30.570Z,100749.16
2022-12-20T13:25:59.356Z,100758.97
2022-12-20T13:28:25.701Z,100757.69
2022-12-20T13:31:01.080Z,100766.38
2022-12-20T13:33:48.305Z,100755.84
2022-12-20T13:36:17.737Z,100762.81
2022-12-20T13:38:55.982Z,100757.59
2022-12-20T13:41:45.562Z,100761.25
2022-12-20T13:44:14.761Z,100757.47
2022-12-20T13:46:47.849Z,100756.69
2022-12-20T13:49:32.139Z,100747.47
2022-12-20T13:52:28.777Z,100738.66
2022-12-20T13:55:15.966Z,100739.53
2022-12-20T13:57:46.060Z,100744.31
2022-12-20T14:00:18.764Z,100736.84
2022-12-20T14:02:45.846Z,100754.97
2022-12-20T14:05:15.263Z,100759.41
2022-12-20T14:07:43.347Z,100769.25
2022-12-20T14:10:23.261Z,100757.13
2022-12-20T14:12:54.528Z,100763.09
2022-12-20T14:15:33.147Z,100764.09
2022-12-20T14:18:24.776Z,100771.19
2022-12-20T14:20:58.916Z,100758.56
2022-12-20T14:23:34.938Z,100772.19
2022-12-20T14:26:02.666Z,100764.09
2022-12-20T14:28:35.865Z,100760.69
2022-12-20T14:31:04.586Z,100765.78
2022-12-20T14:33:36.942Z,100769.63
2022-12-20T14:36:15.582Z,100780.09
2022-12-20T14:38:44.012Z,100778.72
2022-12-20T14:41:42.576Z,100779.84
2022-12-20T14:44:21.586Z,100780.94
2022-12-20T14:46:56.765Z,100776.59
2022-12-20T14:49:36.547Z,100767.16
2022-12-20T14:52:18.006Z,100748.03
2022-12-20T14:55:12.920Z,100742.50
2022-12-20T14:57:51.345Z,100742.88
2022-12-20T15:00:17.772Z,100740.88
2022-12-20T15:02:52.765Z,100753.19
2022-12-20T15:05:40.551Z,100753.81
2022-12-20T15:08:33.450Z,100755.84
2022-12-20T15:11:01.505Z,100754.81
2022-12-20T15:13:42.561Z,100757.22
2022-12-20T15:16:21.147Z,100761.56
2022-12-20T15:19:08.579Z,100758.25
2022-12-20T15:21:41.024Z,100754.56
2022-12-20T15:24:14.391Z,100763.97
2022-12-20T15:26:41.527Z,100751.28
2022-12-20T15:29:15.493Z,100752.47
2022-12-20T15:31:42.176Z,100754.13
2022-12-20T15:34:32.346Z,100752.38
2022-12-20T15:37:00.216Z,100758.44
2022-12-20T15:39:27.727Z,100760.91
2022-12-20T15:41:54.791Z,100766.91
2022-12-20T15:44:24.446Z,100755.97
2022-12-20T15:46:51.552Z,100757.41
2022-12-20T15:49:24.211Z,100737.22
2022-12-20T15:51:52.651Z,100758.31
2022-12-20T15:54:27.333Z,100769.00
2022-12-20T15:56:55.367Z,100775.09
2022-12-20T15:59:58.345Z,100777.75
2022-12-20T16:02:21.966Z,100774.31
2022-12-20T16:04:48.656Z,100767.88
2022-12-20T16:07:16.768Z,100763.88
2022-12-20T16:09:43.451Z,100770.94
2022-12-20T16:12:32.552Z,100775.47
2022-12-20T16:14:59.260Z,100768.47
2022-12-20T16:17:25.770Z,100772.78
2022-12-20T16:19:52.415Z,100768.00
2022-12-20T16:22:22.368Z,100777.28
2022-12-20T16:24:49.511Z,100774.44
2022-12-20T16:27:16.085Z,100767.81
2022-12-20T16:29:42.729Z,100763.69
2022-12-20T16:32:21.565Z,100765.16
2022-12-20T16:34:51.475Z,100780.81
2022-12-20T16:37:18.533Z,100777.09
2022-12-20T16:39:45.193Z,100773.16
2022-12-20T16:42:16.852Z,100782.63
2022-12-20T16:44:45.337Z,100797.53
2022-12-20T16:47:12.491Z,100788.69
2022-12-20T16:49:39.037Z,100783.81
2022-12-20T16:52:06.759Z,100791.19
2022-12-20T16:54:33.321Z,100790.06
2022-12-20T16:56:59.804Z,100786.56
2022-12-20T16:59:26.400Z,100805.03
2022-12-20T17:01:55.681Z,100804.56
2022-12-20T17:04:23.443Z,100813.72
2022-12-20T17:06:50.312Z,100810.03
2022-12-20T17:12:04.301Z,100813.03
2022-12-20T17:14:31.061Z,100804.56
2022-12-20T17:16:57.568Z,100812.56
2022-12-20T17:19:24.003Z,100807.44
2022-12-20T17:24:34.757Z,100817.72
2022-12-20T17:27:01.273Z,100817.72
2022-12-20T17:29:27.786Z,100819.38
2022-12-20T17:31:54.363Z,100816.72
2022-12-20T17:34:24.655Z,100811.41
2022-12-20T17:36:54.308Z,100808.28
2022-12-20T17:39:21.775Z,100810.09
2022-12-20T17:41:51.623Z,100829.22
2022-12-20T17:44:21.620Z,100811.13
2022-12-20T17:46:48.538Z,100817.09
2022-12-20T17:49:16.069Z,100815.69
2022-12-20T17:51:42.978Z,100807.44
2022-12-20T17:54:17.918Z,100818.94
2022-12-20T17:56:45.386Z,100821.13
2022-12-20T17:59:12.950Z,100822.50
2022-12-20T18:01:40.812Z,100840.81
2022-12-20T18:04:11.367Z,100841.44
2022-12-20T18:06:39.721Z,100842.66
2022-12-20T18:09:27.364Z,100839.34
2022-12-20T18:11:54.196Z,100829.16
2022-12-20T18:14:20.583Z,100845.03
2022-12-20T18:16:47.518Z,100840.28
2022-12-20T18:19:18.455Z,100832.63
2022-12-20T18:21:45.534Z,100830.78
2022-12-20T18:24:14.296Z,100837.75
2022-12-20T18:26:41.824Z,100832.63
2022-12-20T18:29:09.562Z,100826.03
2022-12-20T18:31:36.174Z,100832.16
2022-12-20T18:34:03.345Z,100826.38
2022-12-20T18:36:35.139Z,100829.88
2022-12-20T18:39:04.522Z,100833.38
2022-12-20T18:41:32.250Z,100827.75
2022-12-20T18:44:01.070Z,100830.63
2022-12-20T18:46:28.699Z,100834.91
2022-12-20T18:48:56.696Z,100842.63
2022-12-20T18:51:26.203Z,100833.19
2022-12-20T18:53:55.640Z,100848.97
2022-12-20T18:56:36.535Z,100819.31
2022-12-20T18:59:10.680Z,100828.09
2022-12-20T19:01:38.991Z,100831.78
2022-12-20T19:04:07.308Z,100840.75
2022-12-20T19:06:34.539Z,100830.84
2022-12-20T19:09:06.329Z,100828.56
2022-12-20T19:11:33.672Z,100837.38
2022-12-20T19:14:00.449Z,100838.19
2022-12-20T19:16:30.452Z,100840.03
2022-12-20T19:18:58.492Z,100844.53
2022-12-20T19:21:30.551Z,100842.72
2022-12-20T19:23:59.504Z,100839.88
2022-12-20T19:26:28.210Z,100847.00
2022-12-20T19:28:55.557Z,100838.19
2022-12-20T19:31:25.139Z,100834.25
2022-12-20T19:33:57.321Z,100836.06
2022-12-20T19:36:30.851Z,100836.06
2022-12-20T19:38:59.542Z,100845.38
2022-12-20T19:41:29.050Z,100848.38
2022-12-20T19:43:56.424Z,100860.22
2022-12-20T19:46:29.450Z,100861.75
2022-12-20T19:48:58.607Z,100859.84
2022-12-20T19:51:26.239Z,100860.81
2022-12-20T19:53:54.020Z,100870.66
2022-12-20T19:56:23.059Z,100882.50
2022-12-20T19:58:49.841Z,100878.50
2022-12-20T20:01:18.437Z,100871.00
2022-12-20T20:03:45.711Z,100871.84
2022-12-20T20:06:12.989Z,100876.50
2022-12-20T20:08:40.353Z,100871.91
2022-12-20T20:11:09.722Z,100874.28
2022-12-20T20:13:38.037Z,100866.28
2022-12-20T20:16:05.864Z,100882.38
2022-12-20T20:18:36.776Z,100867.28
2022-12-20T20:21:14.455Z,100868.13
2022-12-20T20:23:41.017Z,100867.63
2022-12-20T20:26:10.908Z,100864.00
2022-12-20T20:28:44.450Z,100878.28
2022-12-20T20:31:13.986Z,100886.94
2022-12-20T20:33:40.925Z,100875.31
2022-12-20T20:36:07.806Z,100894.91
2022-12-20T20:38:35.158Z,100903.91
2022-12-20T20:41:01.863Z,100895.28
2022-12-20T20:43:29.765Z,100877.88
2022-12-20T20:45:56.711Z,100886.69
2022-12-20T20:48:23.262Z,100905.44
2022-12-20T20:50:49.662Z,100907.94
2022-12-20T20:53:16.268Z,100905.63
2022-12-20T20:55:42.833Z,100911.41
2022-12-20T20:58:09.549Z,100904.13
2022-12-20T21:00:36.481Z,100912.06
2022-12-20T21:03:03.337Z,100898.75
2022-12-20T21:08:16.788Z,100875.16
2022-12-20T21:10:43.378Z,100889.00
2022-12-20T21:13:09.902Z,100898.00
2022-12-20T21:15:36.937Z,100893.53
2022-12-20T21:18:03.344Z,100887.06
2022-12-20T21:20:29.823Z,100892.09
2022-12-20T21:22:57.291Z,100889.44
2022-12-20T21:25:23.877Z,100884.28
2022-12-20T21:27:50.358Z,100884.66
2022-12-20T21:30:17.489Z,100889.13
2022-12-20T21:32:43.892Z,100895.94
2022-12-20T21:35:10.896Z,100883.81
2022-12-20T21:37:37.378Z,100898.13
2022-12-20T21:40:04.789Z,100888.47
2022-12-20T21:42:31.496Z,100892.09
2022-12-20T21:44:57.933Z,100896.94
2022-12-20T21:47:24.785Z,100901.63
2022-12-20T21:49:51.467Z,100904.09
2022-12-20T21:52:17.893Z,100895.47
2022-12-20T21:54:44.391Z,100893.66
2022-12-20T21:57:11.221Z,100897.69
2022-12-20T21:59:38.383Z,100901.22
2022-12-20T22:02:05.259Z,100894.78
2022-12-20T22:04:33.588Z,100902.28
2022-12-20T22:07:00.023Z,100908.28
2022-12-20T22:09:26.609Z,100915.78
2022-12-20T22:11:53.190Z,100919.75
2022-12-20T22:14:19.874Z,100916.22
2022-12-20T22:16:46.456Z,100911.22
2022-12-20T22:19:14.697Z,100915.22
2022-12-20T22:21:41.710Z,100917.34
2022-12-20T22:24:09.007Z,100924.31
2022-12-20T22:26:36.866Z,100919.84
2022-12-20T22:29:05.877Z,100916.88
2022-12-20T22:31:32.942Z,100921.88
2022-12-20T22:34:00.388Z,100915.41
2022-12-20T22:36:27.463Z,100894.03
2022-12-20T22:38:55.339Z,100918.59
2022-12-20T22:41:24.553Z,100915.44
2022-12-20T22:43:50.990Z,100914.13
2022-12-20T22:49:02.539Z,100919.22
2022-12-20T22:51:31.027Z,100911.91
2022-12-20T22:53:58.722Z,100903.28
2022-12-20T22:56:25.341Z,100917.38
2022-12-20T22:58:51.804Z,100915.69
2022-12-20T23:01:20.762Z,100917.91
2022-12-20T23:03:48.219Z,100917.06
2022-12-20T23:06:17.563Z,100917.72
2022-12-20T23:08:44.093Z,100925.72
2022-12-20T23:11:43.537Z,100917.41
2022-12-20T23:14:34.411Z,100919.59
2022-12-20T23:17:02.377Z,100922.88
2022-12-20T23:19:49.215Z,100927.03
2022-12-20T23:22:34.039Z,100923.53
2022-12-20T23:25:01.447Z,100928.53
2022-12-20T23:27:27.835Z,100925.88
2022-12-20T23:29:54.205Z,100929.88
2022-12-20T23:32:20.638Z,100934.69
2022-12-20T23:34:47.015Z,100922.75
2022-12-20T23:37:13.403Z,100937.88
2022-12-20T23:39:39.766Z,100940.03
2022-12-20T23:42:06.973Z,100941.38
2022-12-20T23:44:33.474Z,100934.91
2022-12-20T23:46:59.869Z,100940.72
2022-12-20T23:49:27.305Z,100951.53
2022-12-20T23:51:53.668Z,100937.91
2022-12-20T23:54:21.437Z,100929.97
2022-12-20T23:56:48.501Z,100935.09
2022-12-20T23:59:15.599Z,100946.56
